Santa Juliana, Brazil
Current Conditions -  °F | °C
As of 10:00 AM on Wednesday 22 Oct 2014 (Local Time) from SBUR Reporting Station
Few Clouds Few Clouds  
Wind Chill: 77°   Ceiling: Unl
Heat Index: 79°   Visibility: 6mi
Dew Point: 61°   Wind: 14mph
Humidity: 57%   Direction: 90°E
Pressure: 30.12"   Gusts: NA
Location:  19.31°S, 47.53°W
Report Text: SBUR 221200Z 09012KT 9999 FEW045 25/16 Q1020
Loading
Personal Weather Stations






























Interactive Weather Map
Tropical Storm Tracking
New forecast layout! Learn more

10-Day Weather Forecast

Advertisements
Track Severe Weather on mobile